createdAt,value
2022-09-05T00:01:28.192Z,21.91
2022-09-05T00:04:24.325Z,21.89
2022-09-05T00:07:00.880Z,21.87
2022-09-05T00:09:58.896Z,21.85
2022-09-05T00:12:29.367Z,21.83
2022-09-05T00:15:17.647Z,21.78
2022-09-05T00:20:48.061Z,21.79
2022-09-05T00:24:19.519Z,21.74
2022-09-05T00:24:34.755Z,21.69
2022-09-05T00:27:00.388Z,21.72
2022-09-05T00:31:07.044Z,21.72
2022-09-05T00:33:16.868Z,21.69
2022-09-05T00:36:10.470Z,21.68
2022-09-05T00:38:42.639Z,21.47
2022-09-05T00:41:13.860Z,21.64
2022-09-05T00:43:45.647Z,21.62
2022-09-05T00:46:17.713Z,21.62
2022-09-05T00:48:51.952Z,21.58
2022-09-05T00:51:34.962Z,21.56
2022-09-05T00:54:41.385Z,21.55
2022-09-05T00:57:35.779Z,21.51
2022-09-05T01:00:17.240Z,21.52
2022-09-05T01:03:19.244Z,21.49
2022-09-05T01:06:01.032Z,21.48
2022-09-05T01:08:52.779Z,21.47
2022-09-05T01:11:37.825Z,21.46
2022-09-05T01:14:18.220Z,21.44
2022-09-05T01:17:13.728Z,21.40
2022-09-05T01:20:04.714Z,21.36
2022-09-05T01:23:08.345Z,21.34
2022-09-05T01:26:00.385Z,21.31
2022-09-05T01:29:13.851Z,21.29
2022-09-05T01:31:32.472Z,21.28
2022-09-05T01:34:10.676Z,21.25
2022-09-05T01:36:59.539Z,21.22
2022-09-05T01:40:16.189Z,21.23
2022-09-05T01:42:39.789Z,21.11
2022-09-05T01:45:17.145Z,21.18
2022-09-05T01:47:55.539Z,21.13
2022-09-05T01:50:40.519Z,20.94
2022-09-05T01:53:25.495Z,21.10
2022-09-05T01:56:14.955Z,21.07
2022-09-05T01:58:56.770Z,21.09
2022-09-05T02:01:33.480Z,21.08
2022-09-05T02:04:31.005Z,21.04
2022-09-05T02:07:30.395Z,21.02
2022-09-05T02:10:16.215Z,20.97
2022-09-05T02:12:56.783Z,20.97
2022-09-05T02:15:42.921Z,20.98
2022-09-05T02:18:33.699Z,20.93
2022-09-05T02:21:04.486Z,20.95
2022-09-05T02:23:42.627Z,20.90
2022-09-05T02:26:18.586Z,20.85
2022-09-05T02:28:56.735Z,20.86
2022-09-05T02:31:32.971Z,20.86
2022-09-05T02:34:09.431Z,20.90
2022-09-05T02:36:44.675Z,20.86
2022-09-05T02:45:00.381Z,20.86
2022-09-05T02:45:20.766Z,20.84
2022-09-05T02:45:31.027Z,20.67
2022-09-05T02:48:15.567Z,20.82
2022-09-05T02:57:25.983Z,20.82
2022-09-05T02:57:34.409Z,20.78
2022-09-05T02:58:04.691Z,20.81
2022-09-05T03:00:02.252Z,20.83
2022-09-05T03:02:38.055Z,20.81
2022-09-05T03:05:13.119Z,20.82
2022-09-05T03:08:12.697Z,20.82
2022-09-05T03:11:12.964Z,20.81
2022-09-05T03:14:12.214Z,20.81
2022-09-05T03:17:14.989Z,20.78
2022-09-05T03:20:13.250Z,20.74
2022-09-05T03:23:17.453Z,20.71
2022-09-05T03:26:34.371Z,20.74
2022-09-05T03:29:35.646Z,20.69
2022-09-05T03:32:48.807Z,20.67
2022-09-05T03:36:05.631Z,20.70
2022-09-05T03:39:12.131Z,20.71
2022-09-05T03:42:05.657Z,20.68
2022-09-05T03:45:01.111Z,20.71
2022-09-05T03:48:02.314Z,20.69
2022-09-05T03:57:05.593Z,20.74
2022-09-05T03:57:11.909Z,20.80
2022-09-05T03:57:38.826Z,20.79
2022-09-05T04:00:20.905Z,20.79
2022-09-05T04:08:10.687Z,20.79
2022-09-05T04:08:25.373Z,20.77
2022-09-05T04:08:57.068Z,20.74
2022-09-05T04:11:35.643Z,20.74
2022-09-05T04:14:08.510Z,20.72
2022-09-05T04:16:50.240Z,20.68
2022-09-05T04:19:26.554Z,20.72
2022-09-05T04:22:06.569Z,20.56
2022-09-05T04:24:44.066Z,20.70
2022-09-05T04:27:27.987Z,20.67
2022-09-05T04:30:04.950Z,20.67
2022-09-05T04:32:58.527Z,20.64
2022-09-05T04:35:38.704Z,20.61
2022-09-05T04:38:13.086Z,20.49
2022-09-05T04:40:45.778Z,20.55
2022-09-05T04:43:27.600Z,20.56
2022-09-05T04:46:02.735Z,20.53
2022-09-05T04:48:38.000Z,20.50
2022-09-05T04:51:11.684Z,20.47
2022-09-05T04:53:57.984Z,20.39
2022-09-05T04:56:31.602Z,20.37
2022-09-05T05:01:08.273Z,20.35
2022-09-05T05:06:10.845Z,20.28
2022-09-05T05:06:17.754Z,20.30
2022-09-05T05:07:46.445Z,20.27
2022-09-05T05:12:04.185Z,20.25
2022-09-05T05:17:56.088Z,20.18
2022-09-05T05:18:15.637Z,20.26
2022-09-05T05:19:18.647Z,20.25
2022-09-05T05:21:51.859Z,20.23
2022-09-05T05:24:25.019Z,20.24
2022-09-05T05:26:59.963Z,20.26
2022-09-05T05:29:39.272Z,20.30
2022-09-05T05:32:08.699Z,20.32
2022-09-05T05:34:44.294Z,20.34
2022-09-05T05:37:19.567Z,20.35
2022-09-05T05:39:52.631Z,20.36
2022-09-05T05:42:24.400Z,20.33
2022-09-05T05:44:54.683Z,20.41
2022-09-05T05:47:31.424Z,20.46
2022-09-05T05:50:11.445Z,20.51
2022-09-05T05:52:51.166Z,20.51
2022-09-05T05:55:53.586Z,20.48
2022-09-05T05:58:35.372Z,20.50
2022-09-05T06:01:41.292Z,20.55
2022-09-05T06:04:44.863Z,20.57
2022-09-05T06:07:27.444Z,20.58
2022-09-05T06:14:24.838Z,20.62
2022-09-05T06:14:55.255Z,20.62
2022-09-05T06:16:59.414Z,20.62
2022-09-05T06:21:34.568Z,20.66
2022-09-05T06:23:39.411Z,20.67
2022-09-05T06:26:42.730Z,20.70
2022-09-05T06:29:34.501Z,20.73
2022-09-05T06:32:25.672Z,20.79
2022-09-05T06:35:17.752Z,20.80
2022-09-05T06:37:54.438Z,20.85
2022-09-05T06:40:33.047Z,20.86
2022-09-05T06:43:14.410Z,20.90
2022-09-05T06:46:03.707Z,20.91
2022-09-05T06:48:47.028Z,20.97
2022-09-05T06:52:17.899Z,21.03
2022-09-05T06:55:18.294Z,21.10
2022-09-05T06:58:10.636Z,21.16
2022-09-05T07:00:47.672Z,21.19
2022-09-05T07:03:28.649Z,21.23
2022-09-05T07:06:05.792Z,21.31
2022-09-05T07:08:48.086Z,21.36
2022-09-05T07:11:20.820Z,21.42
2022-09-05T07:13:58.282Z,21.46
2022-09-05T07:16:39.034Z,21.48
2022-09-05T07:19:24.395Z,21.46
2022-09-05T07:22:29.544Z,21.54
2022-09-05T07:25:08.793Z,21.59
2022-09-05T07:28:26.148Z,21.65
2022-09-05T07:30:34.648Z,21.74
2022-09-05T07:33:05.255Z,21.81
2022-09-05T07:35:42.185Z,21.85
2022-09-05T07:38:15.011Z,21.87
2022-09-05T07:40:51.805Z,21.92
2022-09-05T07:43:24.538Z,21.94
2022-09-05T07:46:06.359Z,21.99
2022-09-05T07:48:38.637Z,22.02
2022-09-05T07:54:30.026Z,21.95
2022-09-05T07:56:58.644Z,22.12
2022-09-05T07:59:41.387Z,22.16
2022-09-05T08:02:12.597Z,22.21
2022-09-05T08:04:42.482Z,22.28
2022-09-05T08:07:45.859Z,22.31
2022-09-05T08:10:10.675Z,22.36
2022-09-05T08:13:22.691Z,22.42
2022-09-05T08:16:10.154Z,22.50
2022-09-05T08:18:30.721Z,22.58
2022-09-05T08:21:04.384Z,22.58
2022-09-05T08:23:47.360Z,22.62
2022-09-05T08:26:21.873Z,22.65
2022-09-05T08:28:57.555Z,22.65
2022-09-05T08:31:35.621Z,22.67
2022-09-05T08:34:18.523Z,22.74
2022-09-05T08:37:01.796Z,22.82
2022-09-05T08:39:33.017Z,22.87
2022-09-05T08:42:14.338Z,22.87
2022-09-05T08:46:40.696Z,22.92
2022-09-05T08:47:49.206Z,22.96
2022-09-05T08:50:33.855Z,22.97
2022-09-05T08:53:28.408Z,22.96
2022-09-05T08:56:10.127Z,23.06
2022-09-05T08:59:27.263Z,23.10
2022-09-05T09:02:45.228Z,23.22
2022-09-05T09:05:01.813Z,23.24
2022-09-05T09:07:50.673Z,23.25
2022-09-05T09:10:32.512Z,23.34
2022-09-05T09:13:24.543Z,23.34
2022-09-05T09:16:04.610Z,23.37
2022-09-05T09:18:42.403Z,23.39
2022-09-05T09:21:32.368Z,23.44
2022-09-05T09:24:14.055Z,23.56
2022-09-05T09:27:01.070Z,23.64
2022-09-05T09:29:34.313Z,23.66
2022-09-05T09:32:07.512Z,23.67
2022-09-05T09:35:21.338Z,23.77
2022-09-05T09:38:13.619Z,23.87
2022-09-05T09:41:14.615Z,24.05
2022-09-05T09:44:07.575Z,24.07
2022-09-05T09:46:43.418Z,24.09
2022-09-05T09:49:30.580Z,24.07
2022-09-05T09:52:28.821Z,24.15
2022-09-05T09:55:40.941Z,24.36
2022-09-05T09:58:40.190Z,24.31
2022-09-05T10:01:36.209Z,24.46
2022-09-05T10:10:36.515Z,24.58
2022-09-05T10:10:46.165Z,24.74
2022-09-05T10:14:47.940Z,25.16
2022-09-05T10:17:47.735Z,25.57
2022-09-05T10:20:31.112Z,26.02
2022-09-05T10:23:26.290Z,26.34
2022-09-05T10:26:30.832Z,26.87
2022-09-05T10:29:35.064Z,27.17
2022-09-05T10:33:58.358Z,27.34
2022-09-05T10:35:14.947Z,27.60
2022-09-05T10:37:49.543Z,27.83
2022-09-05T10:40:23.066Z,27.98
2022-09-05T10:43:00.677Z,28.13
2022-09-05T10:45:38.456Z,28.13
2022-09-05T10:48:17.265Z,28.29
2022-09-05T10:50:50.572Z,28.69
2022-09-05T10:53:29.771Z,28.77
2022-09-05T10:56:14.274Z,29.09
2022-09-05T11:02:19.453Z,29.17
2022-09-05T11:02:27.747Z,29.31
2022-09-05T11:04:50.175Z,29.39
2022-09-05T11:07:29.316Z,29.46
2022-09-05T11:10:05.435Z,29.37
2022-09-05T11:12:58.459Z,29.58
2022-09-05T11:15:34.360Z,29.70
2022-09-05T11:18:04.921Z,29.96
2022-09-05T11:21:04.962Z,29.94
2022-09-05T11:23:47.090Z,30.09
2022-09-05T11:26:34.854Z,30.32
2022-09-05T11:29:08.001Z,30.56
2022-09-05T11:32:30.349Z,30.74
2022-09-05T11:39:52.702Z,31.04
2022-09-05T11:40:03.913Z,31.08
2022-09-05T11:41:33.755Z,30.98
2022-09-05T11:44:27.388Z,31.48
2022-09-05T11:47:40.955Z,31.83
2022-09-05T11:50:44.690Z,32.13
2022-09-05T11:53:52.080Z,32.46
2022-09-05T11:57:20.068Z,32.66
2022-09-05T12:00:33.469Z,32.66
2022-09-05T12:03:56.924Z,32.74
2022-09-05T12:06:47.992Z,32.67
2022-09-05T12:09:29.059Z,32.90
2022-09-05T12:12:34.199Z,33.05
2022-09-05T12:15:26.593Z,33.29
2022-09-05T12:18:19.509Z,33.21
2022-09-05T12:20:57.307Z,33.32
2022-09-05T12:24:08.305Z,33.31
2022-09-05T12:27:40.623Z,33.35
2022-09-05T12:29:36.121Z,33.52
2022-09-05T12:33:32.621Z,33.52
2022-09-05T12:36:10.757Z,33.60
2022-09-05T12:40:43.382Z,33.53
2022-09-05T12:41:43.150Z,33.44
2022-09-05T12:44:41.030Z,33.44
2022-09-05T12:47:22.817Z,33.62
2022-09-05T12:50:14.467Z,33.54
2022-09-05T12:52:46.917Z,33.65
2022-09-05T12:55:25.970Z,33.70
2022-09-05T13:02:58.786Z,33.54
2022-09-05T13:03:09.580Z,33.48
2022-09-05T13:04:16.576Z,33.38
2022-09-05T13:07:00.160Z,32.94
2022-09-05T13:09:39.362Z,33.24
2022-09-05T13:14:54.907Z,33.22
2022-09-05T13:15:23.655Z,32.93
2022-09-05T13:18:00.230Z,33.16
2022-09-05T13:20:38.337Z,33.25
2022-09-05T13:23:19.963Z,33.27
2022-09-05T13:25:57.923Z,33.15
2022-09-05T13:28:30.304Z,32.80
2022-09-05T13:37:53.664Z,32.34
2022-09-05T13:38:02.438Z,31.85
2022-09-05T13:38:12.700Z,31.39
2022-09-05T13:40:00.043Z,31.24
2022-09-05T13:42:32.856Z,31.36
2022-09-05T13:45:02.859Z,31.64
2022-09-05T13:47:54.280Z,31.66
2022-09-05T13:50:26.401Z,31.70
2022-09-05T13:52:59.541Z,31.65
2022-09-05T13:55:45.173Z,31.78
2022-09-05T13:58:20.369Z,31.87
2022-09-05T14:01:32.542Z,31.75
2022-09-05T14:08:02.088Z,31.21
2022-09-05T14:11:03.228Z,30.99
2022-09-05T14:13:44.114Z,31.03
2022-09-05T14:16:18.190Z,30.95
2022-09-05T14:19:02.680Z,31.01
2022-09-05T14:21:34.306Z,31.03
2022-09-05T14:24:10.081Z,31.00
2022-09-05T14:26:46.227Z,30.86
2022-09-05T14:29:20.340Z,30.68
2022-09-05T14:36:42.243Z,30.44
2022-09-05T14:37:39.023Z,30.27
2022-09-05T14:38:09.608Z,30.04
2022-09-05T14:41:30.649Z,29.79
2022-09-05T14:44:17.319Z,29.68
2022-09-05T14:47:02.665Z,29.73
2022-09-05T14:50:04.158Z,29.73
2022-09-05T14:52:35.523Z,29.68
2022-09-05T15:02:50.941Z,29.62
2022-09-05T15:02:51.203Z,29.60
2022-09-05T15:06:37.906Z,29.60
2022-09-05T15:12:14.330Z,29.42
2022-09-05T15:12:26.244Z,29.62
2022-09-05T15:14:58.464Z,29.61
2022-09-05T15:17:27.949Z,29.53
2022-09-05T15:20:06.702Z,29.59
2022-09-05T15:22:37.316Z,29.45
2022-09-05T15:25:17.097Z,29.49
2022-09-05T15:27:46.579Z,29.56
2022-09-05T15:30:20.911Z,29.43
2022-09-05T15:32:50.700Z,29.33
2022-09-05T15:35:37.940Z,29.24
2022-09-05T15:38:25.278Z,29.16
2022-09-05T15:41:17.262Z,29.01
2022-09-05T15:43:52.878Z,29.01
2022-09-05T15:46:29.483Z,28.92
2022-09-05T15:49:02.490Z,28.81
2022-09-05T15:51:44.506Z,28.73
2022-09-05T15:54:35.968Z,28.52
2022-09-05T15:57:17.863Z,28.53
2022-09-05T15:59:49.813Z,28.48
2022-09-05T16:02:23.012Z,28.41
2022-09-05T16:10:30.876Z,28.45
2022-09-05T16:10:37.632Z,28.34
2022-09-05T16:11:12.116Z,28.40
2022-09-05T16:13:36.809Z,28.37
2022-09-05T16:23:20.163Z,28.36
2022-09-05T16:23:26.208Z,28.37
2022-09-05T16:23:28.411Z,28.37
2022-09-05T16:25:03.518Z,28.35
2022-09-05T16:27:45.461Z,28.28
2022-09-05T16:30:25.273Z,28.12
2022-09-05T16:32:59.269Z,28.08
2022-09-05T16:35:27.891Z,28.04
2022-09-05T16:38:10.355Z,27.98
2022-09-05T16:40:43.591Z,27.92
2022-09-05T16:43:20.694Z,27.86
2022-09-05T16:46:03.525Z,27.84
2022-09-05T16:48:40.262Z,27.73
2022-09-05T16:51:34.807Z,27.56
2022-09-05T16:54:13.681Z,27.69
2022-09-05T16:56:47.406Z,27.65
2022-09-05T16:59:21.250Z,27.60
2022-09-05T17:02:07.904Z,27.50
2022-09-05T17:05:03.525Z,27.44
2022-09-05T17:07:48.090Z,27.37
2022-09-05T17:10:19.108Z,27.38
2022-09-05T17:12:52.115Z,27.33
2022-09-05T17:15:23.528Z,27.21
2022-09-05T17:18:19.064Z,27.27
2022-09-05T17:20:50.311Z,27.26
2022-09-05T17:29:16.046Z,27.20
2022-09-05T17:29:43.101Z,27.13
2022-09-05T17:29:48.957Z,27.11
2022-09-05T17:32:04.486Z,27.09
2022-09-05T17:35:17.260Z,27.00
2022-09-05T17:38:12.088Z,26.92
2022-09-05T17:41:10.111Z,26.90
2022-09-05T17:43:40.051Z,26.83
2022-09-05T17:46:29.102Z,26.81
2022-09-05T17:49:06.094Z,26.75
2022-09-05T17:52:18.158Z,26.66
2022-09-05T17:54:50.010Z,26.70
2022-09-05T17:57:45.862Z,26.65
2022-09-05T18:01:04.347Z,26.56
2022-09-05T18:04:17.082Z,26.52
2022-09-05T18:06:59.965Z,26.45
2022-09-05T18:13:31.575Z,26.34
2022-09-05T18:16:12.029Z,26.27
2022-09-05T18:19:33.468Z,26.21
2022-09-05T18:21:49.548Z,26.22
2022-09-05T18:24:24.922Z,26.16
2022-09-05T18:27:47.468Z,26.14
2022-09-05T18:30:06.897Z,26.09
2022-09-05T18:32:45.254Z,26.09
2022-09-05T18:35:36.280Z,25.96
2022-09-05T18:38:31.109Z,26.06
2022-09-05T18:41:18.209Z,26.01
2022-09-05T18:44:13.580Z,25.98
2022-09-05T18:46:51.543Z,25.93
2022-09-05T18:50:24.155Z,25.90
2022-09-05T18:52:23.367Z,25.83
2022-09-05T18:56:10.481Z,25.76
2022-09-05T18:57:49.679Z,25.69
2022-09-05T19:00:35.254Z,25.65
2022-09-05T19:03:18.519Z,25.59
2022-09-05T19:05:50.797Z,25.55
2022-09-05T19:08:28.975Z,25.54
2022-09-05T19:11:27.517Z,25.49
2022-09-05T19:14:25.414Z,25.47
2022-09-05T19:16:50.657Z,25.35
2022-09-05T19:19:24.620Z,25.45
2022-09-05T19:22:32.004Z,25.43
2022-09-05T19:24:45.922Z,25.33
2022-09-05T19:30:48.951Z,25.22
2022-09-05T19:36:49.646Z,25.13
2022-09-05T19:37:02.252Z,25.18
2022-09-05T19:37:13.757Z,25.06
2022-09-05T19:40:15.717Z,25.03
2022-09-05T19:47:31.321Z,24.95
2022-09-05T19:47:41.043Z,24.90
2022-09-05T19:47:56.567Z,24.87
2022-09-05T19:50:21.146Z,24.86
2022-09-05T19:52:53.104Z,24.77
2022-09-05T19:55:23.634Z,24.72
2022-09-05T19:58:19.153Z,24.71
2022-09-05T20:00:50.361Z,24.73
2022-09-05T20:03:34.572Z,24.70
2022-09-05T20:06:24.756Z,24.69
2022-09-05T20:09:10.869Z,24.67
2022-09-05T20:11:46.354Z,24.61
2022-09-05T20:14:20.666Z,24.51
2022-09-05T20:16:50.734Z,24.58
2022-09-05T20:19:28.793Z,24.56
2022-09-05T20:21:59.825Z,24.46
2022-09-05T20:24:49.052Z,24.50
2022-09-05T20:27:17.355Z,24.46
2022-09-05T20:29:55.614Z,24.42
2022-09-05T20:32:39.698Z,24.37
2022-09-05T20:39:08.626Z,24.38
2022-09-05T20:43:18.295Z,24.32
2022-09-05T20:43:19.749Z,24.39
2022-09-05T20:43:57.901Z,24.30
2022-09-05T20:50:04.359Z,24.28
2022-09-05T20:54:06.557Z,24.26
2022-09-05T20:54:18.233Z,24.24
2022-09-05T20:55:38.633Z,24.21
2022-09-05T20:58:11.154Z,24.23
2022-09-05T21:01:15.708Z,24.22
2022-09-05T21:03:36.623Z,24.20
2022-09-05T21:06:22.555Z,24.17
2022-09-05T21:08:52.463Z,24.10
2022-09-05T21:11:30.172Z,24.13
2022-09-05T21:14:02.731Z,24.14
2022-09-05T21:16:33.602Z,23.97
2022-09-05T21:19:01.495Z,24.08
2022-09-05T21:21:32.294Z,24.06
2022-09-05T21:24:15.811Z,24.02
2022-09-05T21:26:47.626Z,24.01
2022-09-05T21:29:17.580Z,24.04
2022-09-05T21:31:50.811Z,24.03
2022-09-05T21:34:27.987Z,23.98
2022-09-05T21:37:06.777Z,23.98
2022-09-05T21:39:39.987Z,23.99
2022-09-05T21:43:21.676Z,23.93
2022-09-05T21:47:37.389Z,23.99
2022-09-05T21:47:53.077Z,23.98
2022-09-05T21:50:31.286Z,23.94
2022-09-05T21:53:45.267Z,23.93
2022-09-05T21:59:18.106Z,23.87
2022-09-05T21:59:18.748Z,23.92
2022-09-05T22:01:51.951Z,23.73
2022-09-05T22:04:19.011Z,23.80
2022-09-05T22:06:48.393Z,23.80
2022-09-05T22:09:18.813Z,23.78
2022-09-05T22:11:50.382Z,23.73
2022-09-05T22:14:19.101Z,23.76
2022-09-05T22:16:50.127Z,23.74
2022-09-05T22:19:22.680Z,23.73
2022-09-05T22:21:53.523Z,23.71
2022-09-05T22:24:23.909Z,23.65
2022-09-05T22:27:12.179Z,23.63
2022-09-05T22:29:41.247Z,23.57
2022-09-05T22:32:09.276Z,23.58
2022-09-05T22:34:37.146Z,23.57
2022-09-05T22:37:05.069Z,23.55
2022-09-05T22:39:36.950Z,23.54
2022-09-05T22:42:10.124Z,23.50
2022-09-05T22:44:39.824Z,23.53
2022-09-05T22:47:08.595Z,23.48
2022-09-05T22:49:37.324Z,23.55
2022-09-05T22:52:06.527Z,23.58
2022-09-05T22:54:36.055Z,23.60
2022-09-05T22:57:04.424Z,23.58
2022-09-05T22:59:32.712Z,23.61
2022-09-05T23:02:00.566Z,23.61
2022-09-05T23:04:28.969Z,23.57
2022-09-05T23:06:56.927Z,23.57
2022-09-05T23:09:24.796Z,23.58
2022-09-05T23:11:53.931Z,23.57
2022-09-05T23:14:21.734Z,23.58
2022-09-05T23:16:49.522Z,23.57
2022-09-05T23:19:17.322Z,23.56
2022-09-05T23:21:45.121Z,23.56
2022-09-05T23:24:12.979Z,23.55
2022-09-05T23:26:40.813Z,23.54
2022-09-05T23:29:09.980Z,23.54
2022-09-05T23:31:37.819Z,23.53
2022-09-05T23:34:05.627Z,23.49
2022-09-05T23:36:33.557Z,23.51
2022-09-05T23:39:01.415Z,23.50
2022-09-05T23:41:29.374Z,23.50
2022-09-05T23:43:57.331Z,23.48
2022-09-05T23:46:26.613Z,23.48
2022-09-05T23:48:54.459Z,23.47
2022-09-05T23:51:22.284Z,23.52
2022-09-05T23:53:50.078Z,23.50
2022-09-05T23:56:17.887Z,23.49
2022-09-05T23:58:45.719Z,23.49
